sensor_id;sensor_type;location;lat;lon;timestamp;temperature;humidity
10143;DHT22;5112;54.088;13.446;2023-04-12T00:00:44;6.40;99.90
10143;DHT22;5112;54.088;13.446;2023-04-12T00:10:47;6.20;99.90
10143;DHT22;5112;54.088;13.446;2023-04-12T00:20:49;6.10;99.90
10143;DHT22;5112;54.088;13.446;2023-04-12T00:30:52;5.80;99.90
10143;DHT22;5112;54.088;13.446;2023-04-12T00:40:54;5.60;99.90
10143;DHT22;5112;54.088;13.446;2023-04-12T00:50:57;5.40;99.90
10143;DHT22;5112;54.088;13.446;2023-04-12T01:01:00;5.20;99.90
10143;DHT22;5112;54.088;13.446;2023-04-12T01:11:07;4.90;99.90
10143;DHT22;5112;54.088;13.446;2023-04-12T01:21:15;4.90;99.90
10143;DHT22;5112;54.088;13.446;2023-04-12T01:31:20;4.80;99.90
10143;DHT22;5112;54.088;13.446;2023-04-12T01:41:25;4.60;99.90
10143;DHT22;5112;54.088;13.446;2023-04-12T01:51:35;4.70;99.90
10143;DHT22;5112;54.088;13.446;2023-04-12T02:01:40;4.80;99.90
10143;DHT22;5112;54.088;13.446;2023-04-12T02:11:46;4.50;99.90
10143;DHT22;5112;54.088;13.446;2023-04-12T02:21:49;4.30;99.90
10143;DHT22;5112;54.088;13.446;2023-04-12T02:31:52;4.20;99.90
10143;DHT22;5112;54.088;13.446;2023-04-12T02:41:54;4.30;99.90
10143;DHT22;5112;54.088;13.446;2023-04-12T02:51:57;4.30;99.90
10143;DHT22;5112;54.088;13.446;2023-04-12T03:01:59;4.10;99.90
10143;DHT22;5112;54.088;13.446;2023-04-12T03:12:02;4.10;99.90
10143;DHT22;5112;54.088;13.446;2023-04-12T03:22:04;3.90;99.90
10143;DHT22;5112;54.088;13.446;2023-04-12T03:32:07;3.90;99.90
10143;DHT22;5112;54.088;13.446;2023-04-12T03:42:10;3.80;99.90
10143;DHT22;5112;54.088;13.446;2023-04-12T03:52:13;3.80;99.90
10143;DHT22;5112;54.088;13.446;2023-04-12T04:02:15;3.60;99.90
10143;DHT22;5112;54.088;13.446;2023-04-12T04:12:18;3.60;99.90
10143;DHT22;5112;54.088;13.446;2023-04-12T04:22:19;3.50;99.90
10143;DHT22;5112;54.088;13.446;2023-04-12T04:32:23;3.30;99.90
10143;DHT22;5112;54.088;13.446;2023-04-12T04:42:25;3.30;99.90
10143;DHT22;5112;54.088;13.446;2023-04-12T04:52:30;3.20;99.90
10143;DHT22;5112;54.088;13.446;2023-04-12T05:02:31;3.60;99.90
10143;DHT22;5112;54.088;13.446;2023-04-12T05:12:35;4.80;99.90
10143;DHT22;5112;54.088;13.446;2023-04-12T05:22:36;5.70;99.90
10143;DHT22;5112;54.088;13.446;2023-04-12T05:32:39;4.60;99.90
10143;DHT22;5112;54.088;13.446;2023-04-12T05:42:41;4.70;99.90
10143;DHT22;5112;54.088;13.446;2023-04-12T05:52:44;4.70;99.90
10143;DHT22;5112;54.088;13.446;2023-04-12T06:02:48;5.00;99.90
10143;DHT22;5112;54.088;13.446;2023-04-12T06:12:51;5.10;99.90
10143;DHT22;5112;54.088;13.446;2023-04-12T06:22:53;5.70;99.90
10143;DHT22;5112;54.088;13.446;2023-04-12T06:32:56;6.00;99.90
10143;DHT22;5112;54.088;13.446;2023-04-12T06:42:58;6.60;99.90
10143;DHT22;5112;54.088;13.446;2023-04-12T06:53:01;7.10;99.90
10143;DHT22;5112;54.088;13.446;2023-04-12T07:03:03;7.80;99.90
10143;DHT22;5112;54.088;13.446;2023-04-12T07:13:06;8.20;99.90
10143;DHT22;5112;54.088;13.446;2023-04-12T07:23:07;8.40;99.90
10143;DHT22;5112;54.088;13.446;2023-04-12T07:33:10;8.70;99.90
10143;DHT22;5112;54.088;13.446;2023-04-12T07:43:12;9.10;99.90
10143;DHT22;5112;54.088;13.446;2023-04-12T07:53:19;9.10;99.90
10143;DHT22;5112;54.088;13.446;2023-04-12T08:03:21;9.50;99.90
10143;DHT22;5112;54.088;13.446;2023-04-12T08:13:25;9.70;99.90
10143;DHT22;5112;54.088;13.446;2023-04-12T08:23:26;10.00;99.90
10143;DHT22;5112;54.088;13.446;2023-04-12T08:33:30;10.30;99.90
10143;DHT22;5112;54.088;13.446;2023-04-12T08:43:33;10.60;99.90
10143;DHT22;5112;54.088;13.446;2023-04-12T08:53:36;10.40;99.90
10143;DHT22;5112;54.088;13.446;2023-04-12T09:03:39;10.70;99.90
10143;DHT22;5112;54.088;13.446;2023-04-12T09:13:42;11.50;99.90
10143;DHT22;5112;54.088;13.446;2023-04-12T09:23:43;11.40;99.90
10143;DHT22;5112;54.088;13.446;2023-04-12T09:33:46;11.40;99.90
10143;DHT22;5112;54.088;13.446;2023-04-12T09:43:48;11.80;99.90
10143;DHT22;5112;54.088;13.446;2023-04-12T09:53:51;12.00;99.90
10143;DHT22;5112;54.088;13.446;2023-04-12T10:03:54;11.80;99.90
10143;DHT22;5112;54.088;13.446;2023-04-12T10:13:57;12.20;99.90
10143;DHT22;5112;54.088;13.446;2023-04-12T10:24:00;12.60;99.90
10143;DHT22;5112;54.088;13.446;2023-04-12T10:34:05;12.40;99.90
10143;DHT22;5112;54.088;13.446;2023-04-12T10:44:22;13.20;99.90
10143;DHT22;5112;54.088;13.446;2023-04-12T10:54:32;12.90;99.90
10143;DHT22;5112;54.088;13.446;2023-04-12T11:04:35;13.60;99.90
10143;DHT22;5112;54.088;13.446;2023-04-12T11:14:43;13.30;99.90
10143;DHT22;5112;54.088;13.446;2023-04-12T11:24:47;13.70;99.90
10143;DHT22;5112;54.088;13.446;2023-04-12T11:34:50;14.10;99.90
10143;DHT22;5112;54.088;13.446;2023-04-12T11:44:52;13.70;99.90
10143;DHT22;5112;54.088;13.446;2023-04-12T11:54:57;14.10;99.90
10143;DHT22;5112;54.088;13.446;2023-04-12T12:04:59;13.80;99.90
10143;DHT22;5112;54.088;13.446;2023-04-12T12:15:04;14.30;99.90
10143;DHT22;5112;54.088;13.446;2023-04-12T12:25:06;14.60;99.90
10143;DHT22;5112;54.088;13.446;2023-04-12T12:35:10;14.40;99.90
10143;DHT22;5112;54.088;13.446;2023-04-12T12:45:12;14.60;99.90
10143;DHT22;5112;54.088;13.446;2023-04-12T12:55:16;14.70;98.20
10143;DHT22;5112;54.088;13.446;2023-04-12T13:05:19;14.50;98.90
10143;DHT22;5112;54.088;13.446;2023-04-12T13:15:23;13.90;99.90
10143;DHT22;5112;54.088;13.446;2023-04-12T13:25:25;13.80;99.90
10143;DHT22;5112;54.088;13.446;2023-04-12T13:35:28;13.60;99.90
10143;DHT22;5112;54.088;13.446;2023-04-12T13:45:30;13.60;99.90
10143;DHT22;5112;54.088;13.446;2023-04-12T13:55:32;13.70;99.90
10143;DHT22;5112;54.088;13.446;2023-04-12T14:05:34;13.50;98.90
10143;DHT22;5112;54.088;13.446;2023-04-12T14:15:37;13.50;99.80
10143;DHT22;5112;54.088;13.446;2023-04-12T14:25:39;13.80;99.80
10143;DHT22;5112;54.088;13.446;2023-04-12T14:35:42;13.50;99.30
10143;DHT22;5112;54.088;13.446;2023-04-12T14:45:43;13.40;99.90
10143;DHT22;5112;54.088;13.446;2023-04-12T14:55:47;13.40;99.90
10143;DHT22;5112;54.088;13.446;2023-04-12T15:05:48;13.30;99.90
10143;DHT22;5112;54.088;13.446;2023-04-12T15:15:51;13.10;99.10
10143;DHT22;5112;54.088;13.446;2023-04-12T15:25:57;13.00;99.90
10143;DHT22;5112;54.088;13.446;2023-04-12T15:36:02;12.90;99.90
10143;DHT22;5112;54.088;13.446;2023-04-12T15:46:04;12.70;99.90
10143;DHT22;5112;54.088;13.446;2023-04-12T15:56:09;12.60;99.90
10143;DHT22;5112;54.088;13.446;2023-04-12T16:06:14;12.60;99.90
10143;DHT22;5112;54.088;13.446;2023-04-12T16:16:21;12.40;99.90
10143;DHT22;5112;54.088;13.446;2023-04-12T16:26:22;12.30;99.90
10143;DHT22;5112;54.088;13.446;2023-04-12T16:36:26;12.00;99.90
10143;DHT22;5112;54.088;13.446;2023-04-12T16:56:33;11.80;99.90
10143;DHT22;5112;54.088;13.446;2023-04-12T17:06:35;11.70;99.90
10143;DHT22;5112;54.088;13.446;2023-04-12T17:16:38;11.70;99.90
10143;DHT22;5112;54.088;13.446;2023-04-12T17:26:40;11.60;99.90
10143;DHT22;5112;54.088;13.446;2023-04-12T17:36:43;11.70;99.90
10143;DHT22;5112;54.088;13.446;2023-04-12T17:46:45;11.60;99.90
10143;DHT22;5112;54.088;13.446;2023-04-12T17:56:49;11.60;99.90
10143;DHT22;5112;54.088;13.446;2023-04-12T18:06:51;11.90;99.90
10143;DHT22;5112;54.088;13.446;2023-04-12T18:16:54;11.80;99.90
10143;DHT22;5112;54.088;13.446;2023-04-12T18:26:56;11.60;99.90
10143;DHT22;5112;54.088;13.446;2023-04-12T18:36:59;11.30;99.90
10143;DHT22;5112;54.088;13.446;2023-04-12T18:47:03;11.10;99.90
10143;DHT22;5112;54.088;13.446;2023-04-12T18:57:06;11.00;99.90
10143;DHT22;5112;54.088;13.446;2023-04-12T19:07:08;10.80;99.90
10143;DHT22;5112;54.088;13.446;2023-04-12T19:17:11;10.90;99.90
10143;DHT22;5112;54.088;13.446;2023-04-12T19:27:13;10.80;99.90
10143;DHT22;5112;54.088;13.446;2023-04-12T19:37:16;10.70;99.90
10143;DHT22;5112;54.088;13.446;2023-04-12T19:47:17;10.60;99.90
10143;DHT22;5112;54.088;13.446;2023-04-12T19:57:20;10.70;99.90
10143;DHT22;5112;54.088;13.446;2023-04-12T20:07:23;10.70;99.90
10143;DHT22;5112;54.088;13.446;2023-04-12T20:17:26;11.00;99.90
10143;DHT22;5112;54.088;13.446;2023-04-12T20:27:28;10.90;99.90
10143;DHT22;5112;54.088;13.446;2023-04-12T20:37:31;10.90;99.90
10143;DHT22;5112;54.088;13.446;2023-04-12T20:47:33;10.80;99.90
10143;DHT22;5112;54.088;13.446;2023-04-12T20:57:36;10.90;99.90
10143;DHT22;5112;54.088;13.446;2023-04-12T21:07:38;11.00;99.90
10143;DHT22;5112;54.088;13.446;2023-04-12T21:17:43;11.00;99.90
10143;DHT22;5112;54.088;13.446;2023-04-12T21:27:45;11.00;99.90
10143;DHT22;5112;54.088;13.446;2023-04-12T21:37:49;11.00;99.90
10143;DHT22;5112;54.088;13.446;2023-04-12T21:47:52;10.90;99.90
10143;DHT22;5112;54.088;13.446;2023-04-12T21:57:55;11.00;99.90
10143;DHT22;5112;54.088;13.446;2023-04-12T22:07:56;10.90;99.90
10143;DHT22;5112;54.088;13.446;2023-04-12T22:18:00;10.80;99.90
10143;DHT22;5112;54.088;13.446;2023-04-12T22:28:01;10.80;99.90
10143;DHT22;5112;54.088;13.446;2023-04-12T22:38:04;10.70;99.90
10143;DHT22;5112;54.088;13.446;2023-04-12T22:48:06;10.70;99.90
10143;DHT22;5112;54.088;13.446;2023-04-12T22:58:15;10.70;99.90
10143;DHT22;5112;54.088;13.446;2023-04-12T23:08:17;10.60;99.90
10143;DHT22;5112;54.088;13.446;2023-04-12T23:18:20;10.60;99.90
10143;DHT22;5112;54.088;13.446;2023-04-12T23:28:25;10.60;99.90
10143;DHT22;5112;54.088;13.446;2023-04-12T23:38:29;10.50;99.90
10143;DHT22;5112;54.088;13.446;2023-04-12T23:48:34;10.70;99.90
10143;DHT22;5112;54.088;13.446;2023-04-12T23:58:37;10.40;99.90
